Time;durP1;ratioP1;P1;durP2;ratioP2;P2;SDS_P1;SDS_P2;PMS_P1;PMS_P2;Temp;Humidity;BMP_temperature;BMP_pressure;BME280_temperature;BME280_humidity;BME280_pressure;Samples;Min_cycle;Max_cycle;Signal;HPM_P1;HPM_P2
2023/11/21 00:01:17;;;;;;;13.63;11.80;;;8.00;99.90;;;;;;494091;241;27863;-73
2023/11/21 00:03:19;;;;;;;10.90;7.47;;;8.00;99.90;;;;;;494050;241;28059;-73
2023/11/21 00:05:19;;;;;;;10.87;9.00;;;8.00;99.90;;;;;;493916;241;27989;-72
2023/11/21 00:07:21;;;;;;;10.57;6.50;;;8.10;99.90;;;;;;494017;241;27983;-72
2023/11/21 00:09:22;;;;;;;6.47;5.87;;;8.10;99.90;;;;;;494020;241;28168;-72
2023/11/21 00:11:25;;;;;;;6.73;4.50;;;8.10;99.90;;;;;;494027;241;27649;-72
2023/11/21 00:13:24;;;;;;;4.30;3.80;;;8.10;99.90;;;;;;494003;241;27953;-72
2023/11/21 00:15:26;;;;;;;3.70;3.40;;;8.10;99.90;;;;;;494109;241;27963;-72
2023/11/21 00:17:27;;;;;;;9.73;5.33;;;8.00;99.90;;;;;;494004;241;27630;-73
2023/11/21 00:19:28;;;;;;;5.80;3.70;;;8.10;99.90;;;;;;494034;241;28046;-72
2023/11/21 00:21:29;;;;;;;3.47;3.00;;;8.10;99.90;;;;;;494110;241;27996;-72
2023/11/21 00:23:30;;;;;;;7.77;2.50;;;8.10;99.90;;;;;;494040;241;27706;-72
2023/11/21 00:25:32;;;;;;;2.30;2.10;;;8.10;99.90;;;;;;494045;239;27828;-72
2023/11/21 00:27:33;;;;;;;2.33;2.13;;;8.00;99.90;;;;;;494112;241;27957;-72
2023/11/21 00:29:34;;;;;;;2.47;1.80;;;8.00;99.90;;;;;;494027;241;27978;-72
2023/11/21 00:31:38;;;;;;;2.43;2.03;;;8.00;99.90;;;;;;494036;241;27978;-73
2023/11/21 00:33:40;;;;;;;4.37;2.00;;;8.00;99.90;;;;;;494046;241;28073;-72
2023/11/21 00:35:41;;;;;;;2.00;1.90;;;8.00;99.90;;;;;;494059;241;28079;-72
2023/11/21 00:37:42;;;;;;;4.93;2.00;;;8.00;99.90;;;;;;494049;241;28069;-73
2023/11/21 00:39:43;;;;;;;4.63;2.13;;;8.00;99.90;;;;;;494141;241;27607;-72
2023/11/21 00:41:48;;;;;;;3.27;2.70;;;8.00;99.90;;;;;;494111;241;27903;-72
2023/11/21 00:43:49;;;;;;;10.13;7.13;;;8.10;99.90;;;;;;494120;241;28039;-72
2023/11/21 00:45:51;;;;;;;3.00;2.80;;;8.00;99.90;;;;;;494135;241;28048;-72
2023/11/21 00:47:51;;;;;;;2.97;2.40;;;8.00;99.90;;;;;;494046;241;27942;-72
2023/11/21 00:49:52;;;;;;;6.77;4.00;;;8.00;99.90;;;;;;494119;241;27943;-71
2023/11/21 00:51:54;;;;;;;3.60;2.90;;;8.00;99.90;;;;;;494025;241;27941;-72
2023/11/21 00:53:55;;;;;;;8.60;2.90;;;8.00;99.90;;;;;;494062;241;27952;-72
2023/11/21 00:55:57;;;;;;;2.13;2.00;;;8.10;99.90;;;;;;494102;239;28376;-72
2023/11/21 00:57:58;;;;;;;2.60;2.40;;;8.10;99.90;;;;;;493999;237;28482;-72
2023/11/21 00:59:59;;;;;;;3.83;2.90;;;8.10;99.90;;;;;;494041;241;28367;-72
2023/11/21 01:02:01;;;;;;;2.80;2.60;;;8.00;99.90;;;;;;494006;241;28457;-72
2023/11/21 01:04:01;;;;;;;3.00;2.80;;;8.00;99.90;;;;;;494011;241;28458;-74
2023/11/21 01:06:02;;;;;;;3.80;3.30;;;8.10;99.90;;;;;;494016;241;28469;-72
2023/11/21 01:08:04;;;;;;;2.63;2.40;;;8.00;99.90;;;;;;494029;241;28036;-72
2023/11/21 01:10:07;;;;;;;3.07;2.87;;;8.00;99.90;;;;;;494031;241;27970;-72
2023/11/21 01:12:06;;;;;;;3.03;2.40;;;8.00;99.90;;;;;;493885;241;27626;-72
2023/11/21 01:14:08;;;;;;;3.70;3.40;;;8.00;99.90;;;;;;494165;241;27518;-74
2023/11/21 01:16:09;;;;;;;4.23;3.77;;;8.00;99.90;;;;;;494007;241;28061;-72
2023/11/21 01:18:10;;;;;;;4.07;2.50;;;8.00;99.90;;;;;;494031;241;27967;-72
2023/11/21 01:20:12;;;;;;;3.77;3.37;;;8.00;99.90;;;;;;494031;241;27952;-72
2023/11/21 01:22:12;;;;;;;3.17;2.97;;;8.00;99.90;;;;;;493995;241;27848;-72
2023/11/21 01:24:14;;;;;;;3.70;3.50;;;8.00;99.90;;;;;;494009;241;28034;-71
2023/11/21 01:26:15;;;;;;;5.27;4.03;;;8.00;99.90;;;;;;493985;241;28342;-72
2023/11/21 01:28:16;;;;;;;8.70;3.00;;;8.00;99.90;;;;;;494028;241;27974;-71
2023/11/21 01:30:17;;;;;;;5.90;2.80;;;8.00;99.90;;;;;;494019;241;27953;-72
2023/11/21 01:32:19;;;;;;;4.87;2.83;;;8.00;99.90;;;;;;494026;241;27924;-72
2023/11/21 01:34:20;;;;;;;2.57;2.37;;;8.00;99.90;;;;;;494038;241;28354;-72
2023/11/21 01:36:21;;;;;;;4.07;3.03;;;8.00;99.90;;;;;;494023;237;28398;-72
2023/11/21 01:38:22;;;;;;;3.70;2.43;;;8.00;99.90;;;;;;494032;241;28430;-72
2023/11/21 01:40:24;;;;;;;4.20;3.90;;;8.00;99.90;;;;;;494044;241;28587;-72
2023/11/21 01:42:25;;;;;;;9.30;6.77;;;8.00;99.90;;;;;;494048;241;28578;-72
2023/11/21 01:44:26;;;;;;;4.40;2.90;;;8.00;99.90;;;;;;494036;241;28581;-73
2023/11/21 01:46:29;;;;;;;6.67;5.57;;;8.00;99.90;;;;;;494013;241;27935;-72
2023/11/21 01:48:29;;;;;;;3.60;3.30;;;8.00;99.90;;;;;;493934;241;28062;-72
2023/11/21 01:50:30;;;;;;;6.80;4.90;;;8.00;99.90;;;;;;494071;241;27568;-74
2023/11/21 01:52:31;;;;;;;6.00;4.83;;;8.00;99.90;;;;;;494016;241;27564;-72
2023/11/21 01:54:32;;;;;;;14.73;10.63;;;8.00;99.90;;;;;;493946;241;28103;-73
2023/11/21 01:56:34;;;;;;;6.97;6.00;;;8.00;99.90;;;;;;494132;241;27467;-72
2023/11/21 01:58:35;;;;;;;20.90;16.00;;;8.00;99.90;;;;;;494078;241;28258;-72
2023/11/21 02:00:38;;;;;;;16.30;10.90;;;8.00;99.90;;;;;;493909;241;27986;-72
2023/11/21 02:02:37;;;;;;;16.20;11.50;;;8.00;99.90;;;;;;493948;241;28019;-73
2023/11/21 02:04:39;;;;;;;13.13;9.90;;;8.00;99.90;;;;;;494107;241;28418;-73
2023/11/21 02:06:40;;;;;;;16.80;13.00;;;8.00;99.90;;;;;;494092;241;28534;-74
2023/11/21 02:08:44;;;;;;;12.90;11.10;;;8.10;99.90;;;;;;494109;241;28575;-72
2023/11/21 02:10:42;;;;;;;16.00;11.80;;;8.00;99.90;;;;;;493946;241;27960;-73
2023/11/21 02:12:44;;;;;;;13.93;11.83;;;8.00;99.90;;;;;;494119;241;27948;-73
2023/11/21 02:14:45;;;;;;;10.33;7.90;;;8.10;99.90;;;;;;494090;241;27997;-72
2023/11/21 02:16:49;;;;;;;9.70;7.40;;;8.10;99.90;;;;;;494124;241;27761;-73
2023/11/21 02:18:48;;;;;;;6.97;5.80;;;8.00;99.90;;;;;;493839;241;27819;-72
2023/11/21 02:20:49;;;;;;;7.43;5.57;;;8.00;99.90;;;;;;494105;241;28033;-72
2023/11/21 02:22:52;;;;;;;7.73;5.70;;;8.00;99.90;;;;;;494001;241;27831;-72
2023/11/21 02:24:51;;;;;;;8.77;6.53;;;8.00;99.90;;;;;;493820;241;27974;-71
2023/11/21 02:26:52;;;;;;;7.67;5.17;;;8.00;99.90;;;;;;494021;241;28107;-73
2023/11/21 02:28:54;;;;;;;5.40;3.90;;;8.10;99.90;;;;;;494038;241;27925;-72
2023/11/21 02:30:59;;;;;;;4.27;3.87;;;8.10;99.90;;;;;;494010;241;28048;-72
2023/11/21 02:32:59;;;;;;;7.10;3.27;;;8.10;99.90;;;;;;493966;241;27955;-72
2023/11/21 02:35:01;;;;;;;3.10;2.90;;;8.00;99.90;;;;;;494017;241;27883;-72
2023/11/21 02:37:01;;;;;;;5.43;3.00;;;8.00;99.90;;;;;;494070;237;28068;-72
2023/11/21 02:39:03;;;;;;;4.23;2.93;;;8.00;99.90;;;;;;494099;241;28023;-73
2023/11/21 02:41:04;;;;;;;4.63;3.70;;;8.00;99.90;;;;;;494128;241;27586;-72
2023/11/21 02:43:05;;;;;;;3.80;2.73;;;8.00;99.90;;;;;;494110;241;27583;-72
2023/11/21 02:45:06;;;;;;;2.80;2.10;;;8.00;99.90;;;;;;494064;241;27954;-72
2023/11/21 02:47:08;;;;;;;3.83;3.53;;;8.00;99.90;;;;;;494020;241;28074;-73
2023/11/21 02:49:12;;;;;;;5.63;5.13;;;8.00;99.90;;;;;;494072;241;28094;-73
2023/11/21 02:51:10;;;;;;;7.03;6.43;;;8.00;99.90;;;;;;493902;241;27921;-72
2023/11/21 02:53:12;;;;;;;7.33;6.63;;;8.00;99.90;;;;;;494010;241;28335;-72
2023/11/21 02:55:13;;;;;;;5.30;4.87;;;8.10;99.90;;;;;;494105;241;28397;-74
2023/11/21 02:57:14;;;;;;;4.00;3.60;;;8.00;99.90;;;;;;494056;241;27917;-72
2023/11/21 02:59:15;;;;;;;4.23;3.90;;;8.00;99.90;;;;;;494017;241;28452;-73
2023/11/21 03:01:16;;;;;;;4.50;4.00;;;8.10;99.90;;;;;;494030;241;28438;-72
2023/11/21 03:03:18;;;;;;;3.67;3.37;;;8.00;99.90;;;;;;493940;241;28482;-72
2023/11/21 03:05:19;;;;;;;3.00;2.80;;;8.00;99.90;;;;;;494045;241;28128;-73
2023/11/21 03:07:21;;;;;;;2.50;2.40;;;8.00;99.90;;;;;;493997;241;28086;-72
2023/11/21 03:09:21;;;;;;;3.00;2.80;;;8.00;99.90;;;;;;494051;241;27990;-73
2023/11/21 03:11:23;;;;;;;2.67;2.47;;;8.00;99.90;;;;;;494014;241;27945;-72
2023/11/21 03:13:24;;;;;;;2.50;2.30;;;8.00;99.90;;;;;;494000;241;28073;-72
2023/11/21 03:15:25;;;;;;;2.07;1.97;;;8.00;99.90;;;;;;494034;241;27969;-74
2023/11/21 03:17:26;;;;;;;3.83;2.33;;;8.00;99.90;;;;;;494034;241;27986;-72
2023/11/21 03:19:28;;;;;;;2.00;1.90;;;8.00;99.90;;;;;;494018;241;27975;-73
2023/11/21 03:21:29;;;;;;;2.20;2.10;;;8.00;99.90;;;;;;494022;241;27949;-72
2023/11/21 03:23:30;;;;;;;2.03;1.93;;;8.00;99.90;;;;;;494090;241;27819;-72
2023/11/21 03:25:31;;;;;;;1.83;1.70;;;8.00;99.90;;;;;;494020;241;27610;-72
2023/11/21 03:27:33;;;;;;;1.80;1.70;;;8.00;99.90;;;;;;494005;241;28029;-71
2023/11/21 03:29:34;;;;;;;1.77;1.67;;;7.90;99.90;;;;;;494019;241;28215;-72
2023/11/21 03:31:36;;;;;;;2.00;1.90;;;8.00;99.90;;;;;;494010;241;28653;-74
2023/11/21 03:33:36;;;;;;;1.90;1.80;;;8.00;99.90;;;;;;494049;241;28094;-72
2023/11/21 03:35:38;;;;;;;2.43;1.60;;;7.90;99.90;;;;;;494024;241;28577;-72
2023/11/21 03:37:41;;;;;;;1.77;1.67;;;7.90;99.90;;;;;;494005;241;28162;-71
2023/11/21 03:39:40;;;;;;;2.93;1.60;;;8.00;99.90;;;;;;493817;241;28405;-73
2023/11/21 03:41:41;;;;;;;1.50;1.40;;;7.90;99.90;;;;;;494128;241;27847;-74
2023/11/21 03:43:43;;;;;;;1.50;1.40;;;7.90;99.90;;;;;;494104;241;27557;-73
2023/11/21 03:45:44;;;;;;;3.37;3.03;;;8.00;99.90;;;;;;494112;241;27993;-72
2023/11/21 03:47:45;;;;;;;10.10;9.17;;;8.00;99.90;;;;;;494112;241;27927;-72
2023/11/21 03:49:46;;;;;;;4.63;4.33;;;8.00;99.90;;;;;;494098;241;27838;-72
2023/11/21 03:51:48;;;;;;;5.53;5.00;;;8.00;99.90;;;;;;494074;241;27978;-73
2023/11/21 03:53:49;;;;;;;3.13;2.93;;;8.00;99.90;;;;;;494040;241;27931;-72
2023/11/21 03:55:50;;;;;;;3.70;3.40;;;8.00;99.90;;;;;;494048;241;27508;-72
2023/11/21 03:57:51;;;;;;;2.83;2.63;;;8.00;99.90;;;;;;494040;241;27530;-72
2023/11/21 03:59:53;;;;;;;2.90;2.70;;;8.00;99.90;;;;;;494065;241;27691;-72
2023/11/21 04:01:54;;;;;;;2.80;2.60;;;8.00;99.90;;;;;;494102;241;27631;-72
2023/11/21 04:03:55;;;;;;;2.47;2.37;;;8.00;99.90;;;;;;494014;241;27828;-72
2023/11/21 04:05:56;;;;;;;3.90;2.10;;;8.00;99.90;;;;;;494062;241;27982;-72
2023/11/21 04:07:58;;;;;;;2.60;2.40;;;8.00;99.90;;;;;;494034;241;28101;-73
2023/11/21 04:09:59;;;;;;;3.23;2.93;;;8.00;99.90;;;;;;494050;241;28352;-72
2023/11/21 04:12:00;;;;;;;3.17;2.93;;;8.00;99.90;;;;;;494113;241;28458;-72
2023/11/21 04:14:01;;;;;;;3.10;2.00;;;8.00;99.90;;;;;;494019;241;28278;-72
2023/11/21 04:16:03;;;;;;;2.80;2.40;;;8.00;99.90;;;;;;493993;241;28528;-72
2023/11/21 04:18:04;;;;;;;2.90;2.60;;;8.00;99.90;;;;;;494057;241;28468;-72
2023/11/21 04:20:08;;;;;;;4.63;2.40;;;8.00;99.90;;;;;;494041;241;28009;-72
2023/11/21 04:22:06;;;;;;;2.50;2.30;;;8.00;99.90;;;;;;493704;241;27847;-73
2023/11/21 04:24:07;;;;;;;3.53;2.33;;;8.00;99.90;;;;;;493968;241;28010;-72
2023/11/21 04:26:09;;;;;;;3.73;2.73;;;8.00;99.90;;;;;;494088;241;27923;-72
2023/11/21 04:28:10;;;;;;;2.30;2.20;;;8.00;99.90;;;;;;494130;241;27783;-74
2023/11/21 04:30:11;;;;;;;3.30;2.90;;;8.00;99.90;;;;;;494130;241;28020;-72
2023/11/21 04:32:12;;;;;;;2.50;2.30;;;8.00;99.90;;;;;;494056;241;27624;-72
2023/11/21 04:34:14;;;;;;;2.33;2.10;;;8.00;99.90;;;;;;494037;241;27709;-72
2023/11/21 04:36:15;;;;;;;2.80;2.60;;;8.00;99.90;;;;;;494033;241;27727;-72
2023/11/21 04:38:16;;;;;;;2.80;2.60;;;8.00;99.90;;;;;;494033;241;27632;-73
2023/11/21 04:40:17;;;;;;;3.37;3.07;;;8.00;99.90;;;;;;494111;241;27470;-71
2023/11/21 04:42:19;;;;;;;2.90;2.70;;;8.00;99.90;;;;;;494105;241;28060;-72
2023/11/21 04:44:20;;;;;;;5.30;4.30;;;7.90;99.90;;;;;;494099;237;27987;-73
2023/11/21 04:46:21;;;;;;;3.43;3.13;;;7.90;99.90;;;;;;494115;237;27972;-72
2023/11/21 04:48:22;;;;;;;4.00;2.63;;;7.90;99.90;;;;;;494130;241;28432;-72
2023/11/21 04:50:26;;;;;;;2.60;2.43;;;7.90;99.90;;;;;;494017;241;28272;-72
2023/11/21 04:52:25;;;;;;;2.80;2.60;;;7.90;99.90;;;;;;493915;241;28579;-72
2023/11/21 04:54:26;;;;;;;4.97;3.30;;;7.90;99.90;;;;;;494166;241;28908;-73
2023/11/21 04:56:27;;;;;;;2.50;2.27;;;7.90;99.90;;;;;;494040;241;28593;-72
2023/11/21 04:58:29;;;;;;;3.13;2.50;;;7.90;99.90;;;;;;494052;241;27860;-73
2023/11/21 05:00:30;;;;;;;2.07;1.97;;;7.90;99.90;;;;;;494157;241;27833;-72
2023/11/21 05:02:31;;;;;;;2.50;2.30;;;7.90;99.90;;;;;;494061;241;27493;-72
2023/11/21 05:04:32;;;;;;;2.17;1.80;;;7.90;99.90;;;;;;494048;241;28067;-73
2023/11/21 05:06:34;;;;;;;1.83;1.73;;;7.90;99.90;;;;;;494167;241;28018;-72
2023/11/21 05:08:36;;;;;;;3.90;1.77;;;7.90;99.90;;;;;;494045;241;27723;-73
2023/11/21 05:10:39;;;;;;;1.70;1.60;;;7.90;99.90;;;;;;493949;241;27867;-72
2023/11/21 05:12:37;;;;;;;3.30;1.93;;;7.90;99.90;;;;;;493982;241;27952;-74
2023/11/21 05:14:39;;;;;;;1.77;1.67;;;7.90;99.90;;;;;;494138;241;27708;-73
2023/11/21 05:16:40;;;;;;;2.13;1.93;;;7.90;99.90;;;;;;494021;241;27928;-72
2023/11/21 05:18:41;;;;;;;1.67;1.47;;;7.90;99.90;;;;;;493998;241;28083;-72
2023/11/21 05:20:42;;;;;;;2.90;1.80;;;7.90;99.90;;;;;;494047;241;28054;-74
2023/11/21 05:22:44;;;;;;;2.13;1.73;;;7.80;99.90;;;;;;494042;241;27588;-72
2023/11/21 05:24:45;;;;;;;2.23;1.87;;;7.80;99.90;;;;;;494039;241;27501;-73
2023/11/21 05:26:46;;;;;;;2.10;2.00;;;7.80;99.90;;;;;;494123;241;27953;-71
2023/11/21 05:28:47;;;;;;;4.33;1.83;;;7.80;99.90;;;;;;494115;241;28213;-72
2023/11/21 05:30:50;;;;;;;2.40;1.53;;;7.80;99.90;;;;;;494047;241;28347;-73
2023/11/21 05:32:50;;;;;;;2.00;1.90;;;7.80;99.90;;;;;;494096;241;28479;-72
2023/11/21 05:34:51;;;;;;;2.37;2.17;;;7.80;99.90;;;;;;494142;241;28506;-73
2023/11/21 05:36:53;;;;;;;2.13;2.03;;;7.80;99.90;;;;;;494189;241;27996;-72
2023/11/21 05:38:54;;;;;;;2.73;2.30;;;7.80;99.90;;;;;;494051;237;27591;-73
2023/11/21 05:40:55;;;;;;;1.97;1.87;;;7.80;99.90;;;;;;494174;241;28141;-72
2023/11/21 05:42:56;;;;;;;1.80;1.70;;;7.80;99.90;;;;;;494153;241;27826;-72
2023/11/21 05:44:59;;;;;;;2.17;1.97;;;7.80;99.90;;;;;;494052;241;27992;-73
2023/11/21 05:46:59;;;;;;;2.23;2.07;;;7.80;99.90;;;;;;494068;241;27820;-72
2023/11/21 05:49:00;;;;;;;1.83;1.73;;;7.80;99.90;;;;;;494120;241;28069;-72
2023/11/21 05:51:01;;;;;;;1.67;1.57;;;7.80;99.90;;;;;;494099;241;27845;-73
2023/11/21 05:53:02;;;;;;;2.30;1.93;;;7.80;99.90;;;;;;494042;241;27951;-72
2023/11/21 05:55:07;;;;;;;1.80;1.70;;;7.70;99.90;;;;;;494065;241;27964;-72
2023/11/21 05:57:05;;;;;;;2.00;1.90;;;7.70;99.90;;;;;;493824;241;28352;-73
2023/11/21 05:59:06;;;;;;;2.50;1.87;;;7.70;99.90;;;;;;494079;241;27958;-72
2023/11/21 06:01:12;;;;;;;1.70;1.60;;;7.70;99.90;;;;;;494068;241;28022;-72
2023/11/21 06:03:12;;;;;;;2.00;1.90;;;7.70;99.90;;;;;;493904;241;27748;-72
2023/11/21 06:05:13;;;;;;;1.80;1.70;;;7.70;99.90;;;;;;494056;241;27719;-73
2023/11/21 06:07:14;;;;;;;2.00;1.90;;;7.70;99.90;;;;;;494031;241;28045;-72
2023/11/21 06:09:16;;;;;;;1.70;1.60;;;7.70;99.90;;;;;;494026;241;28460;-73
2023/11/21 06:11:17;;;;;;;5.70;1.57;;;7.60;99.90;;;;;;494030;241;28000;-72
2023/11/21 06:13:24;;;;;;;4.00;2.00;;;7.70;99.90;;;;;;494117;241;28390;-72
2023/11/21 06:15:21;;;;;;;2.00;1.90;;;7.60;99.90;;;;;;493635;241;28653;-73
2023/11/21 06:17:21;;;;;;;2.30;1.80;;;7.60;99.90;;;;;;494074;241;28301;-72
2023/11/21 06:19:22;;;;;;;1.73;1.63;;;7.60;99.90;;;;;;494018;241;28288;-72
2023/11/21 06:21:23;;;;;;;2.13;1.70;;;7.70;99.90;;;;;;494007;241;27920;-73
2023/11/21 06:23:24;;;;;;;1.53;1.43;;;7.70;99.90;;;;;;494088;241;27736;-72
2023/11/21 06:25:26;;;;;;;6.40;2.10;;;7.70;99.90;;;;;;494138;241;27854;-73
2023/11/21 06:27:27;;;;;;;2.83;2.17;;;7.70;99.90;;;;;;494123;241;28520;-72
2023/11/21 06:29:28;;;;;;;4.10;1.80;;;7.60;99.90;;;;;;494139;239;27990;-73
2023/11/21 06:31:29;;;;;;;2.07;1.97;;;7.70;99.90;;;;;;494054;241;27569;-71
2023/11/21 06:33:31;;;;;;;1.90;1.80;;;7.70;99.90;;;;;;494146;241;27747;-72
2023/11/21 06:35:34;;;;;;;4.90;1.73;;;7.70;99.90;;;;;;494034;241;28092;-72
2023/11/21 06:37:33;;;;;;;1.90;1.80;;;7.70;99.90;;;;;;493855;241;28016;-72
2023/11/21 06:39:35;;;;;;;1.40;1.40;;;7.70;99.90;;;;;;494008;241;27964;-72
2023/11/21 06:41:38;;;;;;;2.50;2.30;;;7.70;99.90;;;;;;493988;241;28058;-72
2023/11/21 06:43:37;;;;;;;2.07;1.97;;;7.70;99.90;;;;;;493864;241;27460;-72
2023/11/21 06:45:38;;;;;;;1.90;1.80;;;7.60;99.90;;;;;;494125;241;27613;-73
2023/11/21 06:47:39;;;;;;;2.10;1.80;;;7.60;99.90;;;;;;494042;241;27805;-72
2023/11/21 06:49:41;;;;;;;1.80;1.70;;;7.70;99.90;;;;;;493994;241;28331;-72
2023/11/21 06:51:42;;;;;;;1.70;1.60;;;7.70;99.90;;;;;;494028;241;28554;-72
2023/11/21 06:53:43;;;;;;;3.47;1.83;;;7.60;99.90;;;;;;493983;241;28416;-72
2023/11/21 06:55:45;;;;;;;2.43;2.00;;;7.60;99.90;;;;;;494076;241;28569;-72
2023/11/21 06:57:46;;;;;;;2.37;2.17;;;7.70;99.90;;;;;;494040;241;28321;-72
2023/11/21 06:59:47;;;;;;;2.13;2.03;;;7.70;99.90;;;;;;493931;241;28118;-72
2023/11/21 07:01:49;;;;;;;1.70;1.60;;;7.70;99.90;;;;;;494069;241;27929;-74
2023/11/21 07:03:49;;;;;;;1.60;1.50;;;7.70;99.90;;;;;;494088;241;27919;-72
2023/11/21 07:05:51;;;;;;;4.13;2.60;;;7.70;99.90;;;;;;494065;241;27892;-73
2023/11/21 07:07:53;;;;;;;2.50;2.30;;;7.70;99.90;;;;;;493983;241;27829;-72
2023/11/21 07:09:53;;;;;;;4.50;2.23;;;7.60;99.90;;;;;;493963;241;27957;-72
2023/11/21 07:11:54;;;;;;;2.73;2.20;;;7.70;99.90;;;;;;494044;241;27892;-73
2023/11/21 07:13:56;;;;;;;2.47;2.30;;;7.60;99.90;;;;;;494026;241;28051;-72
2023/11/21 07:15:57;;;;;;;2.13;1.93;;;7.60;99.90;;;;;;494038;241;27991;-72
2023/11/21 07:17:58;;;;;;;2.57;2.37;;;7.60;99.90;;;;;;494000;241;28055;-72
2023/11/21 07:19:59;;;;;;;2.50;2.30;;;7.70;99.90;;;;;;494050;241;27572;-72
2023/11/21 07:22:01;;;;;;;3.73;2.17;;;7.70;99.90;;;;;;494014;241;27994;-73
2023/11/21 07:24:02;;;;;;;2.30;2.20;;;7.70;99.90;;;;;;493990;237;27805;-71
2023/11/21 07:26:03;;;;;;;3.00;2.80;;;7.70;99.90;;;;;;493999;240;27993;-72
2023/11/21 07:28:05;;;;;;;2.83;2.40;;;7.60;99.90;;;;;;494049;241;28497;-73
2023/11/21 07:30:07;;;;;;;2.90;2.60;;;7.60;99.90;;;;;;494064;241;28503;-72
2023/11/21 07:32:09;;;;;;;2.63;2.43;;;7.60;99.90;;;;;;493925;241;28592;-73
2023/11/21 07:34:08;;;;;;;3.57;3.27;;;7.60;99.90;;;;;;493932;241;27985;-72
2023/11/21 07:36:10;;;;;;;2.97;2.37;;;7.60;99.90;;;;;;493881;241;28472;-72
2023/11/21 07:38:11;;;;;;;2.93;2.60;;;7.50;99.90;;;;;;494093;241;27754;-74
2023/11/21 07:40:12;;;;;;;3.00;2.80;;;7.60;99.90;;;;;;494097;241;27584;-72
2023/11/21 07:42:13;;;;;;;2.83;2.63;;;7.60;99.90;;;;;;494076;241;27860;-72
2023/11/21 07:44:14;;;;;;;2.80;2.60;;;7.60;99.90;;;;;;494080;241;28068;-72
2023/11/21 07:46:16;;;;;;;3.13;2.93;;;7.60;99.90;;;;;;494056;241;27860;-71
2023/11/21 07:48:17;;;;;;;5.20;3.67;;;7.60;99.90;;;;;;494152;241;27735;-72
2023/11/21 07:50:18;;;;;;;3.40;3.10;;;7.60;99.90;;;;;;494165;241;28531;-72
2023/11/21 07:52:21;;;;;;;4.07;3.07;;;7.60;99.90;;;;;;494159;239;28066;-72
2023/11/21 07:54:21;;;;;;;3.20;2.90;;;7.60;99.90;;;;;;493995;241;28025;-72
2023/11/21 07:56:22;;;;;;;3.70;2.97;;;7.60;99.90;;;;;;494176;241;27575;-72
2023/11/21 07:58:23;;;;;;;4.37;3.70;;;7.60;99.90;;;;;;494056;241;28078;-72
2023/11/21 08:00:24;;;;;;;2.90;2.70;;;7.60;99.90;;;;;;494168;241;27942;-73
2023/11/21 08:02:27;;;;;;;3.20;2.90;;;7.60;99.90;;;;;;494085;241;28053;-72
2023/11/21 08:04:27;;;;;;;4.77;4.27;;;7.60;99.90;;;;;;494084;241;28513;-74
2023/11/21 08:06:28;;;;;;;4.70;3.70;;;7.60;99.90;;;;;;494167;241;28102;-71
2023/11/21 08:08:29;;;;;;;4.00;3.70;;;7.50;99.90;;;;;;494161;241;28695;-72
2023/11/21 08:10:31;;;;;;;5.27;4.20;;;7.60;99.90;;;;;;494149;241;28491;-72
2023/11/21 08:12:32;;;;;;;4.50;3.87;;;7.60;99.90;;;;;;494044;241;28447;-72
2023/11/21 08:14:33;;;;;;;4.40;3.87;;;7.60;99.90;;;;;;494150;241;28558;-73
2023/11/21 08:16:34;;;;;;;3.53;3.20;;;7.60;99.90;;;;;;494155;241;28063;-72
2023/11/21 08:18:36;;;;;;;5.77;4.33;;;7.60;99.90;;;;;;494148;241;28055;-72
2023/11/21 08:20:39;;;;;;;6.07;3.60;;;7.60;99.90;;;;;;494132;241;27509;-72
2023/11/21 08:22:40;;;;;;;3.30;3.00;;;7.60;99.90;;;;;;493910;241;27998;-72
2023/11/21 08:24:39;;;;;;;4.30;3.43;;;7.60;99.90;;;;;;493904;241;27967;-74
2023/11/21 08:26:41;;;;;;;4.83;3.83;;;7.60;99.90;;;;;;494045;241;28030;-72
2023/11/21 08:28:42;;;;;;;3.93;3.63;;;7.60;99.90;;;;;;494060;241;27882;-72
2023/11/21 08:30:44;;;;;;;4.83;4.03;;;7.60;99.90;;;;;;494020;241;28014;-72
2023/11/21 08:32:44;;;;;;;5.17;3.60;;;7.60;99.90;;;;;;494058;241;27963;-72
2023/11/21 08:34:46;;;;;;;4.27;3.23;;;7.60;99.90;;;;;;494056;241;28079;-73
2023/11/21 08:36:47;;;;;;;5.53;4.60;;;7.60;99.90;;;;;;494043;241;28038;-72
2023/11/21 08:38:48;;;;;;;4.93;4.43;;;7.60;99.90;;;;;;494001;241;28446;-72
2023/11/21 08:40:49;;;;;;;5.50;4.57;;;7.60;99.90;;;;;;494072;241;27871;-73
2023/11/21 08:42:52;;;;;;;3.87;3.47;;;7.50;99.90;;;;;;493972;241;28058;-72
2023/11/21 08:44:52;;;;;;;4.57;3.90;;;7.50;99.90;;;;;;493982;237;28454;-72
2023/11/21 08:46:53;;;;;;;5.67;3.70;;;7.60;99.90;;;;;;494010;241;28135;-72
2023/11/21 08:48:54;;;;;;;3.90;3.60;;;7.60;99.90;;;;;;494021;241;28515;-72
2023/11/21 08:50:56;;;;;;;5.27;3.90;;;7.50;99.90;;;;;;494064;241;28055;-72
2023/11/21 08:52:57;;;;;;;4.33;3.93;;;7.60;99.90;;;;;;494037;241;27969;-72
2023/11/21 08:55:02;;;;;;;6.90;4.87;;;7.60;99.90;;;;;;494045;241;27862;-73
2023/11/21 08:57:00;;;;;;;5.60;4.07;;;7.50;99.90;;;;;;493706;237;27743;-73
2023/11/21 08:59:02;;;;;;;4.10;3.77;;;7.60;99.90;;;;;;493951;241;27914;-73
2023/11/21 09:01:02;;;;;;;4.70;3.70;;;7.60;99.90;;;;;;493954;241;27732;-72
2023/11/21 09:03:08;;;;;;;4.27;3.77;;;7.60;99.90;;;;;;494024;241;28139;-72
2023/11/21 09:05:04;;;;;;;3.40;3.10;;;7.60;99.90;;;;;;493630;241;27959;-73
2023/11/21 09:07:06;;;;;;;4.53;4.10;;;7.70;99.90;;;;;;494045;241;28233;-72
2023/11/21 09:09:08;;;;;;;11.83;4.27;;;7.70;99.90;;;;;;494051;241;27802;-72
2023/11/21 09:11:08;;;;;;;4.40;4.00;;;7.70;99.90;;;;;;493971;241;27959;-72
2023/11/21 09:13:10;;;;;;;3.63;3.17;;;7.70;99.90;;;;;;493957;241;28011;-72
2023/11/21 09:15:11;;;;;;;5.57;4.30;;;7.80;99.90;;;;;;493995;241;27847;-72
2023/11/21 09:17:12;;;;;;;3.87;3.57;;;7.80;99.90;;;;;;494031;241;28490;-73
2023/11/21 09:19:14;;;;;;;3.40;3.10;;;7.80;99.90;;;;;;494020;241;28570;-73
2023/11/21 09:21:14;;;;;;;3.93;3.17;;;7.80;99.90;;;;;;494026;241;28552;-72
2023/11/21 09:23:15;;;;;;;4.63;3.13;;;7.80;99.90;;;;;;494099;241;27920;-72
2023/11/21 09:25:17;;;;;;;5.30;4.23;;;7.80;99.90;;;;;;494109;241;28484;-71
2023/11/21 09:27:18;;;;;;;4.80;4.00;;;7.80;99.90;;;;;;494039;241;27626;-73
2023/11/21 09:29:19;;;;;;;3.73;3.43;;;7.80;99.90;;;;;;494016;237;28089;-72
2023/11/21 09:31:22;;;;;;;4.50;4.10;;;7.80;99.90;;;;;;494020;241;27730;-72
2023/11/21 09:33:24;;;;;;;4.63;4.20;;;7.70;99.90;;;;;;494013;241;28049;-72
2023/11/21 09:35:24;;;;;;;3.90;3.10;;;7.70;99.90;;;;;;493850;241;27956;-72
2023/11/21 09:37:26;;;;;;;3.90;3.60;;;7.80;99.90;;;;;;493996;241;28154;-74
2023/11/21 09:39:26;;;;;;;3.50;3.20;;;7.80;99.90;;;;;;493851;241;28077;-72
2023/11/21 09:41:27;;;;;;;5.20;3.47;;;7.90;99.90;;;;;;494035;241;28105;-72
2023/11/21 09:43:28;;;;;;;3.80;3.33;;;7.90;99.90;;;;;;494080;241;28019;-75
2023/11/21 09:45:31;;;;;;;5.70;3.57;;;7.90;99.90;;;;;;494035;241;27981;-72
2023/11/21 09:47:30;;;;;;;2.97;2.77;;;7.90;99.90;;;;;;493929;241;27747;-72
2023/11/21 09:49:34;;;;;;;3.53;3.07;;;7.90;99.90;;;;;;494111;241;27933;-72
2023/11/21 09:51:36;;;;;;;4.07;2.60;;;7.80;99.90;;;;;;493970;241;27971;-72
2023/11/21 09:53:34;;;;;;;5.37;3.00;;;7.90;99.90;;;;;;493847;241;28064;-73
2023/11/21 09:55:36;;;;;;;2.97;2.77;;;;;;;;;;494035;241;28343;-71
2023/11/21 09:57:38;;;;;;;2.67;2.40;;;7.90;99.90;;;;;;494040;241;27292;-71
2023/11/21 09:59:39;;;;;;;3.10;2.90;;;7.90;99.90;;;;;;494032;241;28462;-73
2023/11/21 10:01:40;;;;;;;3.20;2.90;;;7.90;99.90;;;;;;494014;241;29126;-72
2023/11/21 10:03:42;;;;;;;3.00;2.80;;;7.90;99.90;;;;;;494028;241;28517;-72
2023/11/21 10:05:43;;;;;;;3.30;3.00;;;7.90;99.90;;;;;;494025;241;27971;-72
2023/11/21 10:07:44;;;;;;;4.33;2.47;;;7.90;99.90;;;;;;494011;241;27931;-72
2023/11/21 10:09:45;;;;;;;3.67;3.27;;;7.90;99.90;;;;;;494025;241;28000;-71
2023/11/21 10:11:46;;;;;;;4.70;3.60;;;7.90;99.90;;;;;;494090;237;27977;-72
2023/11/21 10:13:48;;;;;;;3.13;2.83;;;7.80;99.90;;;;;;494018;241;27940;-71
2023/11/21 10:15:49;;;;;;;5.63;3.23;;;7.90;99.90;;;;;;494008;241;28111;-72
2023/11/21 10:17:53;;;;;;;3.27;2.97;;;8.00;99.90;;;;;;494029;241;27601;-71
2023/11/21 10:19:53;;;;;;;3.70;3.20;;;8.00;99.90;;;;;;493868;237;27614;-72
2023/11/21 10:21:54;;;;;;;2.53;2.33;;;8.00;99.90;;;;;;493980;241;28035;-73
2023/11/21 10:23:54;;;;;;;2.87;2.67;;;8.00;99.90;;;;;;493950;241;27729;-72
2023/11/21 10:25:55;;;;;;;3.70;2.83;;;8.00;99.90;;;;;;494070;241;28004;-72
2023/11/21 10:27:56;;;;;;;3.70;2.57;;;8.10;99.90;;;;;;493931;241;27987;-71
2023/11/21 10:29:58;;;;;;;2.80;2.60;;;8.00;99.90;;;;;;494073;241;27989;-71
2023/11/21 10:31:59;;;;;;;2.50;2.20;;;8.00;99.90;;;;;;494100;241;27997;-73
2023/11/21 10:34:00;;;;;;;2.70;2.50;;;8.00;99.90;;;;;;494062;241;28501;-71
2023/11/21 10:36:02;;;;;;;2.40;2.20;;;7.90;99.90;;;;;;494010;241;28081;-72
2023/11/21 10:38:03;;;;;;;3.90;3.10;;;7.90;99.90;;;;;;494026;241;29293;-71